Startpagina
METAR-TAF:

METAR-TAF

Vliegvelden :

Tahiti, Frans-Polynesië

breedte: 17-33S, lengte: 149-37W, hoogte: 2 m

Actueel weer

Dit bericht is 19 minuten geleden gemaakt, om 13:30 UTC
Wind 2 kt uit variabele richting
Temperatuur 22°C
Vochtigheid 83%
Druk 1014 hPa
Zicht 10 km of meer

METAR: NTAA 231330Z AUTO VRB02KT 9999 NCD 22/19 Q1014

Tijdstip: 03:49 (13:49 UTC)

Verwachting

Dit bericht is 2 uur en het 49 minuten geleden gemaakt, om 11:00 UTC
Verwachting geldig van 23 om 12 UTC tot 24 om 18 UTC
Wind 2 kt uit variabele richting
Zicht 10 km of meer
Weinig wolken op 2500 ft
Tijdelijke
van 23 om 18 UTC tot 23 om 22 UTC
Wind 12 kt uit het noordoosten

TAF: NTAA 231100Z 2312/2418 VRB02KT 9999 FEW025 TEMPO 2318/2322 05012KT

Waarnemingen en weersverwachtingen van meer dan 4000 vliegvelden (METAR en TAF).

De beschikbare stations zijn de gele en rode punten op de kaart.

Ga met uw muis naar het station om de naam te zien.

Klik dan om waarnemingen en weersverwachtingen te zien.

kaart wijzigen: klik op de groene knoppen met een zwart kruis om in te zoomen, op de groene knop met een streepje om uit te zoomen of op de groene pijlen voor aangrenzende kaarten.


METAR-TAF: